sensor_id;sensor_type;location;lat;lon;timestamp;P1;durP1;ratioP1;P2;durP2;ratioP2
48789;SDS011;41718;51.980;5.734;2022-07-29T00:01:56;1.08;;;0.98;;
48789;SDS011;41718;51.980;5.734;2022-07-29T00:06:58;1.88;;;1.60;;
48789;SDS011;41718;51.980;5.734;2022-07-29T00:12:00;5.30;;;1.40;;
48789;SDS011;41718;51.980;5.734;2022-07-29T00:17:02;3.13;;;1.83;;
48789;SDS011;41718;51.980;5.734;2022-07-29T00:22:04;2.22;;;1.40;;
48789;SDS011;41718;51.980;5.734;2022-07-29T00:27:05;2.50;;;1.35;;
48789;SDS011;41718;51.980;5.734;2022-07-29T00:32:07;5.95;;;1.92;;
48789;SDS011;41718;51.980;5.734;2022-07-29T00:37:08;3.20;;;1.40;;
48789;SDS011;41718;51.980;5.734;2022-07-29T00:42:10;3.10;;;1.17;;
48789;SDS011;41718;51.980;5.734;2022-07-29T00:47:11;5.07;;;2.15;;
48789;SDS011;41718;51.980;5.734;2022-07-29T00:52:13;1.63;;;1.17;;
48789;SDS011;41718;51.980;5.734;2022-07-29T00:57:17;4.18;;;1.38;;
48789;SDS011;41718;51.980;5.734;2022-07-29T01:02:19;1.42;;;1.33;;
48789;SDS011;41718;51.980;5.734;2022-07-29T01:07:20;1.58;;;1.20;;
48789;SDS011;41718;51.980;5.734;2022-07-29T01:12:23;2.80;;;1.10;;
48789;SDS011;41718;51.980;5.734;2022-07-29T01:17:28;2.30;;;1.42;;
48789;SDS011;41718;51.980;5.734;2022-07-29T01:33:24;2.40;;;1.25;;
48789;SDS011;41718;51.980;5.734;2022-07-29T01:38:49;3.42;;;1.30;;
48789;SDS011;41718;51.980;5.734;2022-07-29T01:43:57;1.75;;;1.20;;
48789;SDS011;41718;51.980;5.734;2022-07-29T01:49:10;3.72;;;1.33;;
48789;SDS011;41718;51.980;5.734;2022-07-29T01:59:50;2.17;;;1.23;;
48789;SDS011;41718;51.980;5.734;2022-07-29T02:04:53;2.10;;;1.85;;
48789;SDS011;41718;51.980;5.734;2022-07-29T02:09:57;2.58;;;1.55;;
48789;SDS011;41718;51.980;5.734;2022-07-29T02:15:01;2.20;;;1.35;;
48789;SDS011;41718;51.980;5.734;2022-07-29T02:20:04;2.70;;;1.33;;
48789;SDS011;41718;51.980;5.734;2022-07-29T02:25:06;7.57;;;1.63;;
48789;SDS011;41718;51.980;5.734;2022-07-29T02:30:14;5.28;;;1.63;;
48789;SDS011;41718;51.980;5.734;2022-07-29T02:35:16;2.70;;;1.83;;
48789;SDS011;41718;51.980;5.734;2022-07-29T02:40:18;3.47;;;1.92;;
48789;SDS011;41718;51.980;5.734;2022-07-29T02:45:20;2.45;;;1.58;;
48789;SDS011;41718;51.980;5.734;2022-07-29T02:50:26;2.85;;;2.17;;
48789;SDS011;41718;51.980;5.734;2022-07-29T02:55:37;3.25;;;2.17;;
48789;SDS011;41718;51.980;5.734;2022-07-29T03:00:43;3.70;;;1.90;;
48789;SDS011;41718;51.980;5.734;2022-07-29T03:05:48;4.35;;;2.25;;
48789;SDS011;41718;51.980;5.734;2022-07-29T03:10:49;4.90;;;2.30;;
48789;SDS011;41718;51.980;5.734;2022-07-29T03:15:52;3.65;;;2.28;;
48789;SDS011;41718;51.980;5.734;2022-07-29T03:20:55;5.93;;;2.40;;
48789;SDS011;41718;51.980;5.734;2022-07-29T03:25:56;5.35;;;2.65;;
48789;SDS011;41718;51.980;5.734;2022-07-29T03:30:58;3.53;;;2.40;;
48789;SDS011;41718;51.980;5.734;2022-07-29T03:36:00;2.47;;;2.28;;
48789;SDS011;41718;51.980;5.734;2022-07-29T03:41:05;3.58;;;2.30;;
48789;SDS011;41718;51.980;5.734;2022-07-29T03:46:10;6.50;;;3.13;;
48789;SDS011;41718;51.980;5.734;2022-07-29T03:51:14;6.75;;;2.35;;
48789;SDS011;41718;51.980;5.734;2022-07-29T03:56:16;3.50;;;2.53;;
48789;SDS011;41718;51.980;5.734;2022-07-29T04:01:22;5.05;;;2.15;;
48789;SDS011;41718;51.980;5.734;2022-07-29T04:06:23;2.72;;;2.53;;
48789;SDS011;41718;51.980;5.734;2022-07-29T04:11:26;4.68;;;2.88;;
48789;SDS011;41718;51.980;5.734;2022-07-29T04:16:28;4.15;;;2.63;;
48789;SDS011;41718;51.980;5.734;2022-07-29T04:21:30;4.53;;;3.10;;
48789;SDS011;41718;51.980;5.734;2022-07-29T04:26:31;5.28;;;2.70;;
48789;SDS011;41718;51.980;5.734;2022-07-29T04:31:33;3.53;;;2.78;;
48789;SDS011;41718;51.980;5.734;2022-07-29T04:36:35;3.10;;;2.78;;
48789;SDS011;41718;51.980;5.734;2022-07-29T04:41:36;3.92;;;2.22;;
48789;SDS011;41718;51.980;5.734;2022-07-29T04:46:38;4.90;;;3.17;;
48789;SDS011;41718;51.980;5.734;2022-07-29T04:51:40;3.13;;;2.70;;
48789;SDS011;41718;51.980;5.734;2022-07-29T04:56:41;3.03;;;2.83;;
48789;SDS011;41718;51.980;5.734;2022-07-29T05:01:43;5.20;;;2.88;;
48789;SDS011;41718;51.980;5.734;2022-07-29T05:06:45;8.02;;;2.92;;
48789;SDS011;41718;51.980;5.734;2022-07-29T05:11:46;5.07;;;3.60;;
48789;SDS011;41718;51.980;5.734;2022-07-29T05:16:48;4.57;;;2.70;;
48789;SDS011;41718;51.980;5.734;2022-07-29T05:21:52;3.38;;;2.65;;
48789;SDS011;41718;51.980;5.734;2022-07-29T05:26:53;3.00;;;2.80;;
48789;SDS011;41718;51.980;5.734;2022-07-29T05:31:55;2.85;;;2.45;;
48789;SDS011;41718;51.980;5.734;2022-07-29T05:36:56;4.75;;;3.20;;
48789;SDS011;41718;51.980;5.734;2022-07-29T05:41:58;2.78;;;2.42;;
48789;SDS011;41718;51.980;5.734;2022-07-29T05:47:00;4.30;;;2.53;;
48789;SDS011;41718;51.980;5.734;2022-07-29T05:52:01;6.70;;;2.55;;
48789;SDS011;41718;51.980;5.734;2022-07-29T05:57:03;3.58;;;2.88;;
48789;SDS011;41718;51.980;5.734;2022-07-29T06:02:06;6.10;;;3.45;;
48789;SDS011;41718;51.980;5.734;2022-07-29T06:07:07;3.83;;;2.50;;
48789;SDS011;41718;51.980;5.734;2022-07-29T06:12:09;4.25;;;3.05;;
48789;SDS011;41718;51.980;5.734;2022-07-29T06:17:11;4.63;;;2.40;;
48789;SDS011;41718;51.980;5.734;2022-07-29T06:22:14;5.07;;;2.88;;
48789;SDS011;41718;51.980;5.734;2022-07-29T06:27:17;5.20;;;2.90;;
48789;SDS011;41718;51.980;5.734;2022-07-29T06:32:18;8.70;;;3.47;;
48789;SDS011;41718;51.980;5.734;2022-07-29T06:37:23;5.78;;;2.58;;
48789;SDS011;41718;51.980;5.734;2022-07-29T06:42:26;4.00;;;3.00;;
48789;SDS011;41718;51.980;5.734;2022-07-29T06:47:27;4.18;;;2.78;;
48789;SDS011;41718;51.980;5.734;2022-07-29T06:52:29;4.45;;;2.55;;
48789;SDS011;41718;51.980;5.734;2022-07-29T06:57:31;4.03;;;3.22;;
48789;SDS011;41718;51.980;5.734;2022-07-29T07:02:33;2.80;;;2.58;;
48789;SDS011;41718;51.980;5.734;2022-07-29T07:07:34;5.38;;;3.05;;
48789;SDS011;41718;51.980;5.734;2022-07-29T07:12:36;5.72;;;3.25;;
48789;SDS011;41718;51.980;5.734;2022-07-29T07:17:37;4.28;;;2.53;;
48789;SDS011;41718;51.980;5.734;2022-07-29T07:22:39;4.47;;;2.75;;
48789;SDS011;41718;51.980;5.734;2022-07-29T07:27:41;4.43;;;2.80;;
48789;SDS011;41718;51.980;5.734;2022-07-29T07:32:43;4.95;;;2.38;;
48789;SDS011;41718;51.980;5.734;2022-07-29T07:37:45;2.38;;;2.10;;
48789;SDS011;41718;51.980;5.734;2022-07-29T07:42:47;3.83;;;2.78;;
48789;SDS011;41718;51.980;5.734;2022-07-29T07:47:48;2.53;;;2.33;;
48789;SDS011;41718;51.980;5.734;2022-07-29T07:52:51;3.50;;;2.30;;
48789;SDS011;41718;51.980;5.734;2022-07-29T07:57:54;4.65;;;2.78;;
48789;SDS011;41718;51.980;5.734;2022-07-29T08:02:56;4.13;;;2.88;;
48789;SDS011;41718;51.980;5.734;2022-07-29T08:07:58;2.88;;;2.15;;
48789;SDS011;41718;51.980;5.734;2022-07-29T08:13:01;3.63;;;2.42;;
48789;SDS011;41718;51.980;5.734;2022-07-29T08:18:04;3.40;;;2.40;;
48789;SDS011;41718;51.980;5.734;2022-07-29T08:23:09;6.20;;;2.85;;
48789;SDS011;41718;51.980;5.734;2022-07-29T08:28:10;2.28;;;1.80;;
48789;SDS011;41718;51.980;5.734;2022-07-29T08:33:12;5.82;;;2.53;;
48789;SDS011;41718;51.980;5.734;2022-07-29T08:38:14;4.18;;;2.70;;
48789;SDS011;41718;51.980;5.734;2022-07-29T08:43:15;5.22;;;2.40;;
48789;SDS011;41718;51.980;5.734;2022-07-29T08:48:18;5.03;;;2.20;;
48789;SDS011;41718;51.980;5.734;2022-07-29T08:53:22;3.15;;;1.80;;
48789;SDS011;41718;51.980;5.734;2022-07-29T09:03:37;3.15;;;1.90;;
48789;SDS011;41718;51.980;5.734;2022-07-29T09:08:40;2.22;;;1.77;;
48789;SDS011;41718;51.980;5.734;2022-07-29T09:13:43;3.20;;;1.40;;
48789;SDS011;41718;51.980;5.734;2022-07-29T09:18:45;1.98;;;1.77;;
48789;SDS011;41718;51.980;5.734;2022-07-29T09:29:13;4.03;;;2.00;;
48789;SDS011;41718;51.980;5.734;2022-07-29T09:34:26;4.05;;;2.17;;
48789;SDS011;41718;51.980;5.734;2022-07-29T09:39:35;4.53;;;2.17;;
48789;SDS011;41718;51.980;5.734;2022-07-29T09:44:42;3.97;;;1.90;;
48789;SDS011;41718;51.980;5.734;2022-07-29T09:49:56;4.97;;;2.20;;
48789;SDS011;41718;51.980;5.734;2022-07-29T09:55:05;7.75;;;2.40;;
48789;SDS011;41718;51.980;5.734;2022-07-29T10:00:18;3.35;;;1.67;;
48789;SDS011;41718;51.980;5.734;2022-07-29T10:05:23;5.40;;;2.00;;
48789;SDS011;41718;51.980;5.734;2022-07-29T10:10:37;6.07;;;1.98;;
48789;SDS011;41718;51.980;5.734;2022-07-29T10:15:42;2.05;;;1.77;;
48789;SDS011;41718;51.980;5.734;2022-07-29T10:20:46;2.42;;;1.83;;
48789;SDS011;41718;51.980;5.734;2022-07-29T10:25:49;3.35;;;1.80;;
48789;SDS011;41718;51.980;5.734;2022-07-29T10:30:51;3.83;;;1.25;;
48789;SDS011;41718;51.980;5.734;2022-07-29T10:46:48;2.05;;;1.13;;
48789;SDS011;41718;51.980;5.734;2022-07-29T10:52:09;2.15;;;1.35;;
48789;SDS011;41718;51.980;5.734;2022-07-29T11:24:23;4.68;;;1.40;;
48789;SDS011;41718;51.980;5.734;2022-07-29T11:29:29;5.75;;;1.65;;
48789;SDS011;41718;51.980;5.734;2022-07-29T11:34:40;1.40;;;1.10;;
48789;SDS011;41718;51.980;5.734;2022-07-29T11:39:43;2.90;;;1.25;;
48789;SDS011;41718;51.980;5.734;2022-07-29T11:44:58;2.88;;;1.08;;
48789;SDS011;41718;51.980;5.734;2022-07-29T11:55:35;2.37;;;1.17;;
48789;SDS011;41718;51.980;5.734;2022-07-29T12:00:51;3.08;;;1.33;;
48789;SDS011;41718;51.980;5.734;2022-07-29T12:05:56;2.42;;;1.05;;
48789;SDS011;41718;51.980;5.734;2022-07-29T12:10:57;1.65;;;0.90;;
48789;SDS011;41718;51.980;5.734;2022-07-29T12:15:59;2.72;;;1.42;;
48789;SDS011;41718;51.980;5.734;2022-07-29T12:21:02;1.88;;;0.85;;
48789;SDS011;41718;51.980;5.734;2022-07-29T12:26:07;4.13;;;0.93;;
48789;SDS011;41718;51.980;5.734;2022-07-29T12:31:21;2.75;;;1.15;;
48789;SDS011;41718;51.980;5.734;2022-07-29T12:36:43;2.85;;;1.20;;
48789;SDS011;41718;51.980;5.734;2022-07-29T12:41:45;2.80;;;1.20;;
48789;SDS011;41718;51.980;5.734;2022-07-29T12:47:00;3.00;;;1.25;;
48789;SDS011;41718;51.980;5.734;2022-07-29T12:52:22;3.85;;;1.55;;
48789;SDS011;41718;51.980;5.734;2022-07-29T12:57:28;3.28;;;0.95;;
48789;SDS011;41718;51.980;5.734;2022-07-29T13:02:30;2.33;;;1.10;;
48789;SDS011;41718;51.980;5.734;2022-07-29T13:07:33;1.43;;;1.00;;
48789;SDS011;41718;51.980;5.734;2022-07-29T13:13:07;1.88;;;1.40;;
48789;SDS011;41718;51.980;5.734;2022-07-29T13:18:32;3.08;;;1.27;;
48789;SDS011;41718;51.980;5.734;2022-07-29T13:23:37;5.25;;;1.45;;
48789;SDS011;41718;51.980;5.734;2022-07-29T13:28:39;3.25;;;1.20;;
48789;SDS011;41718;51.980;5.734;2022-07-29T13:33:44;4.22;;;1.63;;
48789;SDS011;41718;51.980;5.734;2022-07-29T13:38:46;2.65;;;1.25;;
48789;SDS011;41718;51.980;5.734;2022-07-29T13:43:47;3.50;;;1.23;;
48789;SDS011;41718;51.980;5.734;2022-07-29T13:48:50;1.88;;;1.20;;
48789;SDS011;41718;51.980;5.734;2022-07-29T13:53:52;2.55;;;1.10;;
48789;SDS011;41718;51.980;5.734;2022-07-29T13:58:53;1.52;;;1.30;;
48789;SDS011;41718;51.980;5.734;2022-07-29T14:03:55;1.20;;;1.08;;
48789;SDS011;41718;51.980;5.734;2022-07-29T14:08:56;2.72;;;1.15;;
48789;SDS011;41718;51.980;5.734;2022-07-29T14:13:58;3.13;;;1.00;;
48789;SDS011;41718;51.980;5.734;2022-07-29T14:19:00;2.45;;;1.30;;
48789;SDS011;41718;51.980;5.734;2022-07-29T14:24:05;2.95;;;1.83;;
48789;SDS011;41718;51.980;5.734;2022-07-29T14:29:19;1.48;;;0.90;;
48789;SDS011;41718;51.980;5.734;2022-07-29T14:34:21;2.50;;;1.23;;
48789;SDS011;41718;51.980;5.734;2022-07-29T14:39:23;2.83;;;1.23;;
48789;SDS011;41718;51.980;5.734;2022-07-29T14:44:31;4.38;;;1.30;;
48789;SDS011;41718;51.980;5.734;2022-07-29T14:49:33;2.50;;;1.08;;
48789;SDS011;41718;51.980;5.734;2022-07-29T14:54:36;1.73;;;1.50;;
48789;SDS011;41718;51.980;5.734;2022-07-29T14:59:40;2.53;;;1.40;;
48789;SDS011;41718;51.980;5.734;2022-07-29T15:04:41;2.22;;;1.50;;
48789;SDS011;41718;51.980;5.734;2022-07-29T15:09:43;2.78;;;1.40;;
48789;SDS011;41718;51.980;5.734;2022-07-29T15:14:50;2.67;;;1.58;;
48789;SDS011;41718;51.980;5.734;2022-07-29T15:19:51;2.47;;;1.50;;
48789;SDS011;41718;51.980;5.734;2022-07-29T15:24:54;2.37;;;2.07;;
48789;SDS011;41718;51.980;5.734;2022-07-29T15:29:56;4.28;;;1.80;;
48789;SDS011;41718;51.980;5.734;2022-07-29T15:34:58;2.78;;;1.92;;
48789;SDS011;41718;51.980;5.734;2022-07-29T15:40:00;5.28;;;1.80;;
48789;SDS011;41718;51.980;5.734;2022-07-29T15:45:02;2.60;;;1.48;;
48789;SDS011;41718;51.980;5.734;2022-07-29T15:50:04;5.25;;;2.00;;
48789;SDS011;41718;51.980;5.734;2022-07-29T15:55:09;3.60;;;1.75;;
48789;SDS011;41718;51.980;5.734;2022-07-29T16:00:11;5.18;;;1.85;;
48789;SDS011;41718;51.980;5.734;2022-07-29T16:05:13;2.60;;;1.75;;
48789;SDS011;41718;51.980;5.734;2022-07-29T16:10:15;3.88;;;1.85;;
48789;SDS011;41718;51.980;5.734;2022-07-29T16:15:17;3.15;;;1.20;;
48789;SDS011;41718;51.980;5.734;2022-07-29T16:20:19;2.10;;;1.27;;
48789;SDS011;41718;51.980;5.734;2022-07-29T16:25:22;6.35;;;1.92;;
48789;SDS011;41718;51.980;5.734;2022-07-29T16:30:43;3.17;;;1.55;;
48789;SDS011;41718;51.980;5.734;2022-07-29T16:35:45;2.15;;;1.33;;
48789;SDS011;41718;51.980;5.734;2022-07-29T16:40:47;2.97;;;1.48;;
48789;SDS011;41718;51.980;5.734;2022-07-29T16:45:49;3.20;;;1.48;;
48789;SDS011;41718;51.980;5.734;2022-07-29T16:50:50;3.40;;;1.65;;
48789;SDS011;41718;51.980;5.734;2022-07-29T16:55:54;8.05;;;2.58;;
48789;SDS011;41718;51.980;5.734;2022-07-29T17:05:57;2.08;;;1.70;;
48789;SDS011;41718;51.980;5.734;2022-07-29T17:10:59;4.20;;;1.85;;
48789;SDS011;41718;51.980;5.734;2022-07-29T17:16:00;4.45;;;1.88;;
48789;SDS011;41718;51.980;5.734;2022-07-29T17:21:02;3.00;;;1.80;;
48789;SDS011;41718;51.980;5.734;2022-07-29T17:26:04;6.00;;;1.63;;
48789;SDS011;41718;51.980;5.734;2022-07-29T17:31:05;2.75;;;1.50;;
48789;SDS011;41718;51.980;5.734;2022-07-29T17:36:07;6.57;;;1.25;;
48789;SDS011;41718;51.980;5.734;2022-07-29T17:41:24;4.43;;;1.17;;
48789;SDS011;41718;51.980;5.734;2022-07-29T17:46:26;1.63;;;1.00;;
48789;SDS011;41718;51.980;5.734;2022-07-29T17:51:28;5.55;;;1.27;;
48789;SDS011;41718;51.980;5.734;2022-07-29T17:56:30;2.75;;;1.40;;
48789;SDS011;41718;51.980;5.734;2022-07-29T18:01:32;3.85;;;1.20;;
48789;SDS011;41718;51.980;5.734;2022-07-29T18:06:34;2.00;;;1.15;;
48789;SDS011;41718;51.980;5.734;2022-07-29T18:11:36;1.60;;;1.50;;
48789;SDS011;41718;51.980;5.734;2022-07-29T18:16:39;1.07;;;0.87;;
48789;SDS011;41718;51.980;5.734;2022-07-29T18:21:41;2.72;;;1.08;;
48789;SDS011;41718;51.980;5.734;2022-07-29T18:26:54;3.00;;;0.93;;
48789;SDS011;41718;51.980;5.734;2022-07-29T18:31:57;2.25;;;1.00;;
48789;SDS011;41718;51.980;5.734;2022-07-29T18:37:01;2.78;;;0.85;;
48789;SDS011;41718;51.980;5.734;2022-07-29T18:42:04;4.22;;;1.27;;
48789;SDS011;41718;51.980;5.734;2022-07-29T18:47:06;2.22;;;1.17;;
48789;SDS011;41718;51.980;5.734;2022-07-29T18:52:11;2.40;;;0.82;;
48789;SDS011;41718;51.980;5.734;2022-07-29T18:57:13;4.13;;;1.25;;
48789;SDS011;41718;51.980;5.734;2022-07-29T19:02:34;2.83;;;1.23;;
48789;SDS011;41718;51.980;5.734;2022-07-29T19:07:38;3.67;;;1.25;;
48789;SDS011;41718;51.980;5.734;2022-07-29T19:12:40;1.83;;;1.20;;
48789;SDS011;41718;51.980;5.734;2022-07-29T19:17:42;3.70;;;1.50;;
48789;SDS011;41718;51.980;5.734;2022-07-29T19:22:45;4.55;;;1.38;;
48789;SDS011;41718;51.980;5.734;2022-07-29T19:27:46;2.60;;;1.60;;
48789;SDS011;41718;51.980;5.734;2022-07-29T19:32:48;5.53;;;1.35;;
48789;SDS011;41718;51.980;5.734;2022-07-29T19:37:50;2.45;;;1.17;;
48789;SDS011;41718;51.980;5.734;2022-07-29T19:42:52;3.00;;;1.17;;
48789;SDS011;41718;51.980;5.734;2022-07-29T19:47:56;1.67;;;1.30;;
48789;SDS011;41718;51.980;5.734;2022-07-29T19:53:01;3.03;;;1.85;;
48789;SDS011;41718;51.980;5.734;2022-07-29T19:58:03;3.85;;;1.70;;
48789;SDS011;41718;51.980;5.734;2022-07-29T20:08:10;3.00;;;1.40;;
48789;SDS011;41718;51.980;5.734;2022-07-29T20:13:11;3.17;;;1.80;;
48789;SDS011;41718;51.980;5.734;2022-07-29T20:18:13;4.90;;;2.13;;
48789;SDS011;41718;51.980;5.734;2022-07-29T20:23:16;2.78;;;2.00;;
48789;SDS011;41718;51.980;5.734;2022-07-29T20:28:19;2.95;;;2.05;;
48789;SDS011;41718;51.980;5.734;2022-07-29T20:33:21;3.35;;;2.00;;
48789;SDS011;41718;51.980;5.734;2022-07-29T20:38:22;2.30;;;2.03;;
48789;SDS011;41718;51.980;5.734;2022-07-29T20:43:24;8.30;;;2.30;;
48789;SDS011;41718;51.980;5.734;2022-07-29T20:48:27;6.80;;;2.75;;
48789;SDS011;41718;51.980;5.734;2022-07-29T20:53:28;4.22;;;2.05;;
48789;SDS011;41718;51.980;5.734;2022-07-29T20:58:31;4.45;;;2.20;;
48789;SDS011;41718;51.980;5.734;2022-07-29T21:03:34;5.78;;;2.75;;
48789;SDS011;41718;51.980;5.734;2022-07-29T21:08:36;6.70;;;2.38;;
48789;SDS011;41718;51.980;5.734;2022-07-29T21:13:38;10.13;;;3.10;;
48789;SDS011;41718;51.980;5.734;2022-07-29T21:18:41;4.38;;;3.08;;
48789;SDS011;41718;51.980;5.734;2022-07-29T21:23:46;3.72;;;2.75;;
48789;SDS011;41718;51.980;5.734;2022-07-29T21:28:48;6.53;;;2.30;;
48789;SDS011;41718;51.980;5.734;2022-07-29T21:33:50;4.70;;;2.80;;
48789;SDS011;41718;51.980;5.734;2022-07-29T21:38:55;5.00;;;2.88;;
48789;SDS011;41718;51.980;5.734;2022-07-29T21:43:57;9.85;;;3.53;;
48789;SDS011;41718;51.980;5.734;2022-07-29T21:49:01;3.17;;;2.25;;
48789;SDS011;41718;51.980;5.734;2022-07-29T21:54:03;6.30;;;3.00;;
48789;SDS011;41718;51.980;5.734;2022-07-29T21:59:06;5.15;;;2.90;;
48789;SDS011;41718;51.980;5.734;2022-07-29T22:04:12;4.72;;;3.10;;
48789;SDS011;41718;51.980;5.734;2022-07-29T22:09:14;5.80;;;2.40;;
48789;SDS011;41718;51.980;5.734;2022-07-29T22:14:16;5.00;;;3.30;;
48789;SDS011;41718;51.980;5.734;2022-07-29T22:19:19;4.28;;;2.90;;
48789;SDS011;41718;51.980;5.734;2022-07-29T22:24:30;7.45;;;3.92;;
48789;SDS011;41718;51.980;5.734;2022-07-29T22:29:32;8.90;;;4.22;;
48789;SDS011;41718;51.980;5.734;2022-07-29T22:34:33;12.27;;;4.47;;
48789;SDS011;41718;51.980;5.734;2022-07-29T22:39:38;15.55;;;4.88;;
48789;SDS011;41718;51.980;5.734;2022-07-29T22:44:40;8.43;;;3.67;;
48789;SDS011;41718;51.980;5.734;2022-07-29T22:49:42;10.85;;;4.18;;
48789;SDS011;41718;51.980;5.734;2022-07-29T22:54:44;7.60;;;4.55;;
48789;SDS011;41718;51.980;5.734;2022-07-29T22:59:47;7.80;;;4.03;;
48789;SDS011;41718;51.980;5.734;2022-07-29T23:04:50;6.63;;;3.83;;
48789;SDS011;41718;51.980;5.734;2022-07-29T23:09:52;6.88;;;4.13;;
48789;SDS011;41718;51.980;5.734;2022-07-29T23:14:53;9.77;;;4.57;;
48789;SDS011;41718;51.980;5.734;2022-07-29T23:19:55;5.45;;;4.20;;
48789;SDS011;41718;51.980;5.734;2022-07-29T23:24:57;10.57;;;5.00;;
48789;SDS011;41718;51.980;5.734;2022-07-29T23:29:58;6.25;;;4.78;;
48789;SDS011;41718;51.980;5.734;2022-07-29T23:35:00;11.15;;;5.53;;
48789;SDS011;41718;51.980;5.734;2022-07-29T23:40:02;9.98;;;5.70;;
48789;SDS011;41718;51.980;5.734;2022-07-29T23:45:05;10.38;;;6.38;;
48789;SDS011;41718;51.980;5.734;2022-07-29T23:50:08;10.27;;;6.32;;
48789;SDS011;41718;51.980;5.734;2022-07-29T23:55:14;10.73;;;6.25;;
